Bedwas, United Kingdom
Current Conditions -  °F | °C
As of 9:20 AM on Thursday 23 Oct 2014 (Local Time) from EGFF Reporting Station
Broken Clouds Broken Clouds  
Wind Chill: 13°   Ceiling: 2000
Heat Index: 13°   Visibility: 6mi
Dew Point: 12°   Wind: 10mph
Humidity: 94%   Direction: 210°SSW
Pressure: 30.09"   Gusts: NA
Location:  51.59°N, 3.2°W
Report Text: EGFF 230820Z 21009KT 9999 7000N FEW003 SCT010 BKN020 13/12 Q1019
Loading
Personal Weather Stations






























Interactive Weather Map
Tropical Storm Tracking
New forecast layout! Learn more

10-Day Weather Forecast

Advertisements
Track Severe Weather on mobile